sensor_id;sensor_type;location;lat;lon;timestamp;pressure;altitude;pressure_sealevel;temperature
67509;BMP280;54354;44.724;11.284;2022-10-16T00:01:28;101938.22;;;24.02
67509;BMP280;54354;44.724;11.284;2022-10-16T00:03:54;101937.50;;;24.07
67509;BMP280;54354;44.724;11.284;2022-10-16T00:06:21;101938.00;;;24.06
67509;BMP280;54354;44.724;11.284;2022-10-16T00:08:47;101936.03;;;24.06
67509;BMP280;54354;44.724;11.284;2022-10-16T00:11:19;101934.00;;;24.01
67509;BMP280;54354;44.724;11.284;2022-10-16T00:13:47;101945.09;;;24.03
67509;BMP280;54354;44.724;11.284;2022-10-16T00:16:14;101939.69;;;24.03
67509;BMP280;54354;44.724;11.284;2022-10-16T00:18:40;101940.41;;;24.04
67509;BMP280;54354;44.724;11.284;2022-10-16T00:21:12;101942.13;;;24.01
67509;BMP280;54354;44.724;11.284;2022-10-16T00:23:38;101946.88;;;24.06
67509;BMP280;54354;44.724;11.284;2022-10-16T00:26:06;101955.00;;;24.06
67509;BMP280;54354;44.724;11.284;2022-10-16T00:28:32;101953.00;;;24.07
67509;BMP280;54354;44.724;11.284;2022-10-16T00:30:58;101960.09;;;24.04
67509;BMP280;54354;44.724;11.284;2022-10-16T00:33:24;101959.38;;;24.04
67509;BMP280;54354;44.724;11.284;2022-10-16T00:35:49;101964.53;;;24.02
67509;BMP280;54354;44.724;11.284;2022-10-16T00:38:15;101969.19;;;24.01
67509;BMP280;54354;44.724;11.284;2022-10-16T00:40:41;101962.56;;;24.02
67509;BMP280;54354;44.724;11.284;2022-10-16T00:43:31;101966.22;;;23.99
67509;BMP280;54354;44.724;11.284;2022-10-16T00:45:58;101962.56;;;24.02
67509;BMP280;54354;44.724;11.284;2022-10-16T01:04:34;101956.72;;;23.89
67509;BMP280;54354;44.724;11.284;2022-10-16T01:10:37;101954.00;;;23.89
67509;BMP280;54354;44.724;11.284;2022-10-16T01:15:47;101956.47;;;23.87
67509;BMP280;54354;44.724;11.284;2022-10-16T01:21:43;101956.47;;;23.87
67509;BMP280;54354;44.724;11.284;2022-10-16T01:29:52;101959.34;;;23.83
67509;BMP280;54354;44.724;11.284;2022-10-16T01:37:32;101964.97;;;23.80
67509;BMP280;54354;44.724;11.284;2022-10-16T01:39:59;101972.63;;;23.81
67509;BMP280;54354;44.724;11.284;2022-10-16T01:42:30;101967.41;;;23.78
67509;BMP280;54354;44.724;11.284;2022-10-16T01:44:59;101968.69;;;23.82
67509;BMP280;54354;44.724;11.284;2022-10-16T01:47:26;101961.78;;;23.81
67509;BMP280;54354;44.724;11.284;2022-10-16T01:49:53;101966.94;;;23.79
67509;BMP280;54354;44.724;11.284;2022-10-16T01:52:23;101969.38;;;23.77
67509;BMP280;54354;44.724;11.284;2022-10-16T01:54:52;101970.13;;;23.78
67509;BMP280;54354;44.724;11.284;2022-10-16T01:57:20;101964.22;;;23.79
67509;BMP280;54354;44.724;11.284;2022-10-16T01:59:52;101967.41;;;23.78
67509;BMP280;54354;44.724;11.284;2022-10-16T02:02:22;101969.84;;;23.76
67509;BMP280;54354;44.724;11.284;2022-10-16T02:05:02;101970.59;;;23.76
67509;BMP280;54354;44.724;11.284;2022-10-16T02:07:29;101982.41;;;23.79
67509;BMP280;54354;44.724;11.284;2022-10-16T02:09:55;101984.84;;;23.77
67509;BMP280;54354;44.724;11.284;2022-10-16T02:12:27;101970.78;;;23.73
67509;BMP280;54354;44.724;11.284;2022-10-16T02:14:53;101977.97;;;23.76
67509;BMP280;54354;44.724;11.284;2022-10-16T02:17:19;101981.09;;;23.74
67509;BMP280;54354;44.724;11.284;2022-10-16T02:19:48;101978.34;;;23.68
67509;BMP280;54354;44.724;11.284;2022-10-16T02:22:28;101981.81;;;23.69
67509;BMP280;54354;44.724;11.284;2022-10-16T02:25:08;101976.56;;;23.65
67509;BMP280;54354;44.724;11.284;2022-10-16T02:27:55;101982.63;;;23.75
67509;BMP280;54354;44.724;11.284;2022-10-16T02:30:30;101982.25;;;23.67
67509;BMP280;54354;44.724;11.284;2022-10-16T02:32:59;101979.75;;;23.64
67509;BMP280;54354;44.724;11.284;2022-10-16T02:35:25;101971.16;;;23.65
67509;BMP280;54354;44.724;11.284;2022-10-16T02:37:53;101974.63;;;23.66
67509;BMP280;54354;44.724;11.284;2022-10-16T02:40:19;101975.63;;;23.68
67509;BMP280;54354;44.724;11.284;2022-10-16T02:42:50;101981.25;;;23.65
67509;BMP280;54354;44.724;11.284;2022-10-16T02:45:17;101978.06;;;23.66
67509;BMP280;54354;44.724;11.284;2022-10-16T02:47:42;101991.78;;;23.63
67509;BMP280;54354;44.724;11.284;2022-10-16T02:50:08;101985.34;;;23.60
67509;BMP280;54354;44.724;11.284;2022-10-16T02:52:33;101990.50;;;23.58
67509;BMP280;54354;44.724;11.284;2022-10-16T02:54:59;101992.16;;;23.56
67509;BMP280;54354;44.724;11.284;2022-10-16T02:57:24;101989.66;;;23.52
67509;BMP280;54354;44.724;11.284;2022-10-16T02:59:50;101993.78;;;23.48
67509;BMP280;54354;44.724;11.284;2022-10-16T03:02:16;101989.56;;;23.47
67509;BMP280;54354;44.724;11.284;2022-10-16T03:04:41;101991.06;;;23.48
67509;BMP280;54354;44.724;11.284;2022-10-16T03:07:06;101998.16;;;23.45
67509;BMP280;54354;44.724;11.284;2022-10-16T03:09:33;101995.38;;;23.40
67509;BMP280;54354;44.724;11.284;2022-10-16T03:11:58;101995.56;;;23.36
67509;BMP280;54354;44.724;11.284;2022-10-16T03:14:24;101993.78;;;23.33
67509;BMP280;54354;44.724;11.284;2022-10-16T03:16:49;102000.88;;;23.30
67509;BMP280;54354;44.724;11.284;2022-10-16T03:19:16;101985.59;;;23.27
67509;BMP280;54354;44.724;11.284;2022-10-16T03:21:42;101997.91;;;23.28
67509;BMP280;54354;44.724;11.284;2022-10-16T03:24:08;101996.84;;;23.26
67509;BMP280;54354;44.724;11.284;2022-10-16T03:26:33;101999.00;;;23.22
67509;BMP280;54354;44.724;11.284;2022-10-16T03:28:58;101996.22;;;23.16
67509;BMP280;54354;44.724;11.284;2022-10-16T03:31:24;102003.75;;;23.12
67509;BMP280;54354;44.724;11.284;2022-10-16T03:33:49;102000.97;;;23.06
67509;BMP280;54354;44.724;11.284;2022-10-16T03:36:15;101995.47;;;23.01
67509;BMP280;54354;44.724;11.284;2022-10-16T03:38:40;101994.44;;;22.98
67509;BMP280;54354;44.724;11.284;2022-10-16T03:41:06;102001.06;;;22.97
67509;BMP280;54354;44.724;11.284;2022-10-16T03:43:33;101996.59;;;22.94
67509;BMP280;54354;44.724;11.284;2022-10-16T03:45:58;101999.44;;;22.91
67509;BMP280;54354;44.724;11.284;2022-10-16T03:48:24;102000.38;;;22.88
67509;BMP280;54354;44.724;11.284;2022-10-16T03:50:49;101997.56;;;22.82
67509;BMP280;54354;44.724;11.284;2022-10-16T03:53:17;102004.81;;;22.76
67509;BMP280;54354;44.724;11.284;2022-10-16T03:55:43;102008.91;;;22.71
67509;BMP280;54354;44.724;11.284;2022-10-16T03:58:09;101998.56;;;22.70
67509;BMP280;54354;44.724;11.284;2022-10-16T04:00:34;102010.56;;;22.69
67509;BMP280;54354;44.724;11.284;2022-10-16T04:03:00;102002.19;;;22.67
67509;BMP280;54354;44.724;11.284;2022-10-16T04:05:26;102009.72;;;22.63
67509;BMP280;54354;44.724;11.284;2022-10-16T04:07:51;102010.66;;;22.60
67509;BMP280;54354;44.724;11.284;2022-10-16T04:10:17;102009.63;;;22.57
67509;BMP280;54354;44.724;11.284;2022-10-16T04:12:43;102024.34;;;22.56
67509;BMP280;54354;44.724;11.284;2022-10-16T04:15:09;102015.94;;;22.54
67509;BMP280;54354;44.724;11.284;2022-10-16T04:17:35;102024.97;;;22.51
67509;BMP280;54354;44.724;11.284;2022-10-16T04:20:00;102019.28;;;22.49
67509;BMP280;54354;44.724;11.284;2022-10-16T04:22:26;102025.41;;;22.50
67509;BMP280;54354;44.724;11.284;2022-10-16T04:24:51;102023.63;;;22.46
67509;BMP280;54354;44.724;11.284;2022-10-16T04:27:17;102024.09;;;22.45
67509;BMP280;54354;44.724;11.284;2022-10-16T04:29:42;102032.94;;;22.45
67509;BMP280;54354;44.724;11.284;2022-10-16T04:32:11;102026.25;;;22.41
67509;BMP280;54354;44.724;11.284;2022-10-16T04:34:39;102033.56;;;22.40
67509;BMP280;54354;44.724;11.284;2022-10-16T04:37:04;102040.16;;;22.39
67509;BMP280;54354;44.724;11.284;2022-10-16T04:39:30;102042.88;;;22.39
67509;BMP280;54354;44.724;11.284;2022-10-16T04:41:55;102041.38;;;22.38
67509;BMP280;54354;44.724;11.284;2022-10-16T04:44:20;102038.09;;;22.34
67509;BMP280;54354;44.724;11.284;2022-10-16T04:46:47;102042.03;;;22.33
67509;BMP280;54354;44.724;11.284;2022-10-16T04:49:12;102041.44;;;22.29
67509;BMP280;54354;44.724;11.284;2022-10-16T04:51:38;102047.28;;;22.28
67509;BMP280;54354;44.724;11.284;2022-10-16T04:54:03;102044.00;;;22.24
67509;BMP280;54354;44.724;11.284;2022-10-16T04:56:29;102036.09;;;22.20
67509;BMP280;54354;44.724;11.284;2022-10-16T04:58:55;102034.56;;;22.19
67509;BMP280;54354;44.724;11.284;2022-10-16T05:01:20;102037.00;;;22.17
67509;BMP280;54354;44.724;11.284;2022-10-16T05:03:45;102044.34;;;22.16
67509;BMP280;54354;44.724;11.284;2022-10-16T05:06:11;102041.06;;;22.12
67509;BMP280;54354;44.724;11.284;2022-10-16T05:08:36;102051.13;;;22.12
67509;BMP280;54354;44.724;11.284;2022-10-16T05:11:02;102050.09;;;22.09
67509;BMP280;54354;44.724;11.284;2022-10-16T05:13:27;102052.03;;;22.09
67509;BMP280;54354;44.724;11.284;2022-10-16T05:15:53;102041.41;;;22.05
67509;BMP280;54354;44.724;11.284;2022-10-16T05:18:18;102048.16;;;22.01
67509;BMP280;54354;44.724;11.284;2022-10-16T05:20:44;102047.84;;;21.99
67509;BMP280;54354;44.724;11.284;2022-10-16T05:23:09;102040.25;;;21.97
67509;BMP280;54354;44.724;11.284;2022-10-16T05:25:37;102044.56;;;21.95
67509;BMP280;54354;44.724;11.284;2022-10-16T05:28:03;102045.06;;;21.93
67509;BMP280;54354;44.724;11.284;2022-10-16T05:30:28;102046.06;;;21.96
67509;BMP280;54354;44.724;11.284;2022-10-16T05:32:54;102051.03;;;21.97
67509;BMP280;54354;44.724;11.284;2022-10-16T05:35:19;102055.22;;;21.98
67509;BMP280;54354;44.724;11.284;2022-10-16T05:37:45;102061.50;;;21.95
67509;BMP280;54354;44.724;11.284;2022-10-16T05:40:11;102060.75;;;21.95
67509;BMP280;54354;44.724;11.284;2022-10-16T05:42:39;102064.69;;;21.94
67509;BMP280;54354;44.724;11.284;2022-10-16T05:45:06;102072.47;;;21.92
67509;BMP280;54354;44.724;11.284;2022-10-16T05:47:34;102078.19;;;21.94
67509;BMP280;54354;44.724;11.284;2022-10-16T05:49:59;102077.44;;;21.93
67509;BMP280;54354;44.724;11.284;2022-10-16T05:52:26;102084.00;;;21.92
67509;BMP280;54354;44.724;11.284;2022-10-16T05:54:52;102083.56;;;21.94
67509;BMP280;54354;44.724;11.284;2022-10-16T05:57:18;102081.44;;;21.98
67509;BMP280;54354;44.724;11.284;2022-10-16T05:59:43;102078.28;;;21.99
67509;BMP280;54354;44.724;11.284;2022-10-16T06:02:12;102077.69;;;21.95
67509;BMP280;54354;44.724;11.284;2022-10-16T06:04:38;102083.06;;;22.04
67509;BMP280;54354;44.724;11.284;2022-10-16T06:07:03;102088.03;;;22.06
67509;BMP280;54354;44.724;11.284;2022-10-16T06:09:29;102097.91;;;22.09
67509;BMP280;54354;44.724;11.284;2022-10-16T06:11:54;102096.69;;;22.10
67509;BMP280;54354;44.724;11.284;2022-10-16T06:14:20;102108.97;;;22.11
67509;BMP280;54354;44.724;11.284;2022-10-16T06:16:45;102110.78;;;22.14
67509;BMP280;54354;44.724;11.284;2022-10-16T06:19:11;102111.50;;;22.14
67509;BMP280;54354;44.724;11.284;2022-10-16T06:21:36;102112.56;;;22.17
67509;BMP280;54354;44.724;11.284;2022-10-16T06:24:02;102109.69;;;22.21
67509;BMP280;54354;44.724;11.284;2022-10-16T06:26:29;102114.34;;;22.20
67509;BMP280;54354;44.724;11.284;2022-10-16T06:28:56;102126.47;;;22.25
67509;BMP280;54354;44.724;11.284;2022-10-16T06:31:23;102131.44;;;22.26
67509;BMP280;54354;44.724;11.284;2022-10-16T06:33:53;102139.19;;;22.33
67509;BMP280;54354;44.724;11.284;2022-10-16T06:36:20;102140.66;;;22.34
67509;BMP280;54354;44.724;11.284;2022-10-16T06:38:46;102140.53;;;22.38
67509;BMP280;54354;44.724;11.284;2022-10-16T06:41:14;102145.44;;;22.39
67509;BMP280;54354;44.724;11.284;2022-10-16T06:43:40;102146.16;;;22.49
67509;BMP280;54354;44.724;11.284;2022-10-16T06:46:07;102156.81;;;22.53
67509;BMP280;54354;44.724;11.284;2022-10-16T06:48:34;102154.97;;;22.59
67509;BMP280;54354;44.724;11.284;2022-10-16T06:53:39;102166.91;;;22.67
67509;BMP280;54354;44.724;11.284;2022-10-16T06:56:12;102173.84;;;22.68
67509;BMP280;54354;44.724;11.284;2022-10-16T06:58:38;102173.94;;;22.73
67509;BMP280;54354;44.724;11.284;2022-10-16T07:01:04;102173.78;;;22.77
67509;BMP280;54354;44.724;11.284;2022-10-16T07:03:30;102182.44;;;22.81
67509;BMP280;54354;44.724;11.284;2022-10-16T07:05:56;102192.66;;;22.86
67509;BMP280;54354;44.724;11.284;2022-10-16T07:08:22;102188.28;;;22.89
67509;BMP280;54354;44.724;11.284;2022-10-16T07:10:47;102195.00;;;22.93
67509;BMP280;54354;44.724;11.284;2022-10-16T07:13:13;102195.84;;;22.99
67509;BMP280;54354;44.724;11.284;2022-10-16T07:15:40;102190.25;;;23.03
67509;BMP280;54354;44.724;11.284;2022-10-16T07:18:06;102195.78;;;23.08
67509;BMP280;54354;44.724;11.284;2022-10-16T07:20:32;102201.78;;;23.13
67509;BMP280;54354;44.724;11.284;2022-10-16T07:22:58;102207.78;;;23.17
67509;BMP280;54354;44.724;11.284;2022-10-16T07:25:23;102212.53;;;23.22
67509;BMP280;54354;44.724;11.284;2022-10-16T07:27:49;102213.84;;;23.26
67509;BMP280;54354;44.724;11.284;2022-10-16T07:30:14;102215.19;;;23.31
67509;BMP280;54354;44.724;11.284;2022-10-16T07:32:40;102218.00;;;23.36
67509;BMP280;54354;44.724;11.284;2022-10-16T07:35:06;102213.63;;;23.39
67509;BMP280;54354;44.724;11.284;2022-10-16T07:37:31;102222.31;;;23.43
67509;BMP280;54354;44.724;11.284;2022-10-16T07:39:57;102223.16;;;23.49
67509;BMP280;54354;44.724;11.284;2022-10-16T07:42:22;102219.81;;;23.54
67509;BMP280;54354;44.724;11.284;2022-10-16T07:44:48;102218.41;;;23.59
67509;BMP280;54354;44.724;11.284;2022-10-16T07:47:13;102226.34;;;23.62
67509;BMP280;54354;44.724;11.284;2022-10-16T07:49:39;102233.53;;;23.65
67509;BMP280;54354;44.724;11.284;2022-10-16T07:52:05;102236.16;;;23.75
67509;BMP280;54354;44.724;11.284;2022-10-16T07:54:30;102234.31;;;23.81
67509;BMP280;54354;44.724;11.284;2022-10-16T07:56:56;102236.34;;;23.86
67509;BMP280;54354;44.724;11.284;2022-10-16T07:59:21;102237.75;;;23.96
67509;BMP280;54354;44.724;11.284;2022-10-16T08:01:49;102241.53;;;23.99
67509;BMP280;54354;44.724;11.284;2022-10-16T08:04:15;102244.28;;;24.04
67509;BMP280;54354;44.724;11.284;2022-10-16T08:06:41;102244.88;;;24.08
67509;BMP280;54354;44.724;11.284;2022-10-16T08:09:07;102233.41;;;24.13
67509;BMP280;54354;44.724;11.284;2022-10-16T08:11:34;102241.84;;;24.21
67509;BMP280;54354;44.724;11.284;2022-10-16T08:13:59;102244.47;;;24.30
67509;BMP280;54354;44.724;11.284;2022-10-16T08:16:25;102251.66;;;24.33
67509;BMP280;54354;44.724;11.284;2022-10-16T08:18:50;102250.25;;;24.38
67509;BMP280;54354;44.724;11.284;2022-10-16T08:21:19;102249.13;;;24.44
67509;BMP280;54354;44.724;11.284;2022-10-16T08:23:45;102250.69;;;24.51
67509;BMP280;54354;44.724;11.284;2022-10-16T08:26:11;102264.63;;;24.58
67509;BMP280;54354;44.724;11.284;2022-10-16T08:28:37;102260.75;;;24.65
67509;BMP280;54354;44.724;11.284;2022-10-16T08:31:08;102257.09;;;24.68
67509;BMP280;54354;44.724;11.284;2022-10-16T08:33:34;102264.38;;;24.77
67509;BMP280;54354;44.724;11.284;2022-10-16T08:36:01;102264.38;;;24.77
67509;BMP280;54354;44.724;11.284;2022-10-16T08:38:27;102264.66;;;24.79
67509;BMP280;54354;44.724;11.284;2022-10-16T08:40:58;102266.41;;;24.82
67509;BMP280;54354;44.724;11.284;2022-10-16T08:48:53;102273.88;;;25.07
67509;BMP280;54354;44.724;11.284;2022-10-16T08:51:23;102272.88;;;25.05
67509;BMP280;54354;44.724;11.284;2022-10-16T08:54:01;102266.50;;;25.08
67509;BMP280;54354;44.724;11.284;2022-10-16T08:56:28;102271.75;;;25.11
67509;BMP280;54354;44.724;11.284;2022-10-16T08:58:54;102267.81;;;25.12
67509;BMP280;54354;44.724;11.284;2022-10-16T09:01:22;102270.28;;;25.16
67509;BMP280;54354;44.724;11.284;2022-10-16T09:06:40;102264.00;;;25.25
67509;BMP280;54354;44.724;11.284;2022-10-16T09:17:30;102266.13;;;25.41
67509;BMP280;54354;44.724;11.284;2022-10-16T09:22:35;102262.28;;;25.47
67509;BMP280;54354;44.724;11.284;2022-10-16T09:25:11;102266.22;;;25.46
67509;BMP280;54354;44.724;11.284;2022-10-16T09:27:37;102261.06;;;25.48
67509;BMP280;54354;44.724;11.284;2022-10-16T09:30:11;102260.31;;;25.48
67509;BMP280;54354;44.724;11.284;2022-10-16T09:32:38;102260.63;;;25.56
67509;BMP280;54354;44.724;11.284;2022-10-16T09:35:12;102253.25;;;25.56
67509;BMP280;54354;44.724;11.284;2022-10-16T09:37:39;102254.06;;;25.62
67509;BMP280;54354;44.724;11.284;2022-10-16T09:40:06;102252.81;;;25.63
67509;BMP280;54354;44.724;11.284;2022-10-16T09:42:34;102257.75;;;25.65
67509;BMP280;54354;44.724;11.284;2022-10-16T09:45:01;102253.31;;;25.67
67509;BMP280;54354;44.724;11.284;2022-10-16T09:47:28;102241.75;;;25.67
67509;BMP280;54354;44.724;11.284;2022-10-16T09:50:04;102249.91;;;25.67
67509;BMP280;54354;44.724;11.284;2022-10-16T09:52:32;102246.00;;;25.73
67509;BMP280;54354;44.724;11.284;2022-10-16T09:55:00;102246.47;;;25.72
67509;BMP280;54354;44.724;11.284;2022-10-16T09:57:27;102248.53;;;25.77
67509;BMP280;54354;44.724;11.284;2022-10-16T09:59:56;102246.25;;;25.75
67509;BMP280;54354;44.724;11.284;2022-10-16T10:02:29;102245.31;;;25.78
67509;BMP280;54354;44.724;11.284;2022-10-16T10:04:55;102261.16;;;25.86
67509;BMP280;54354;44.724;11.284;2022-10-16T10:07:25;102252.03;;;25.83
67509;BMP280;54354;44.724;11.284;2022-10-16T10:09:52;102251.28;;;25.88
67509;BMP280;54354;44.724;11.284;2022-10-16T10:12:21;102252.34;;;25.91
67509;BMP280;54354;44.724;11.284;2022-10-16T10:14:49;102246.66;;;25.94
67509;BMP280;54354;44.724;11.284;2022-10-16T10:17:24;102249.13;;;25.92
67509;BMP280;54354;44.724;11.284;2022-10-16T10:19:59;102248.91;;;25.96
67509;BMP280;54354;44.724;11.284;2022-10-16T10:22:31;102252.63;;;25.98
67509;BMP280;54354;44.724;11.284;2022-10-16T10:30:22;102250.25;;;26.11
67509;BMP280;54354;44.724;11.284;2022-10-16T10:36:15;102247.88;;;26.19
67509;BMP280;54354;44.724;11.284;2022-10-16T10:38:56;102252.56;;;26.19
67509;BMP280;54354;44.724;11.284;2022-10-16T10:46:51;102248.88;;;26.22
67509;BMP280;54354;44.724;11.284;2022-10-16T11:05:59;102223.84;;;26.49
67509;BMP280;54354;44.724;11.284;2022-10-16T11:08:31;102224.09;;;26.51
67509;BMP280;54354;44.724;11.284;2022-10-16T11:11:06;102224.63;;;26.55
67509;BMP280;54354;44.724;11.284;2022-10-16T11:16:13;102226.38;;;26.64
67509;BMP280;54354;44.724;11.284;2022-10-16T11:18:50;102216.53;;;26.66
67509;BMP280;54354;44.724;11.284;2022-10-16T11:21:18;102217.50;;;26.69
67509;BMP280;54354;44.724;11.284;2022-10-16T11:23:50;102218.50;;;26.71
67509;BMP280;54354;44.724;11.284;2022-10-16T11:26:25;102219.50;;;26.74
67509;BMP280;54354;44.724;11.284;2022-10-16T11:28:54;102216.81;;;26.80
67509;BMP280;54354;44.724;11.284;2022-10-16T11:34:27;102213.16;;;26.94
67509;BMP280;54354;44.724;11.284;2022-10-16T11:36:58;102212.16;;;26.91
67509;BMP280;54354;44.724;11.284;2022-10-16T11:39:28;102211.91;;;26.95
67509;BMP280;54354;44.724;11.284;2022-10-16T11:42:16;102217.63;;;27.02
67509;BMP280;54354;44.724;11.284;2022-10-16T11:55:50;102218.91;;;27.18
67509;BMP280;54354;44.724;11.284;2022-10-16T11:58:30;102213.97;;;27.17
67509;BMP280;54354;44.724;11.284;2022-10-16T12:08:37;102206.81;;;27.30
67509;BMP280;54354;44.724;11.284;2022-10-16T12:16:31;102214.00;;;27.45
67509;BMP280;54354;44.724;11.284;2022-10-16T12:19:11;102213.75;;;27.43
67509;BMP280;54354;44.724;11.284;2022-10-16T12:21:37;102208.81;;;27.47
67509;BMP280;54354;44.724;11.284;2022-10-16T12:24:03;102208.31;;;27.48
67509;BMP280;54354;44.724;11.284;2022-10-16T12:26:34;102207.81;;;27.44
67509;BMP280;54354;44.724;11.284;2022-10-16T12:32:00;102209.03;;;27.54
67509;BMP280;54354;44.724;11.284;2022-10-16T12:34:40;102209.78;;;27.55
67509;BMP280;54354;44.724;11.284;2022-10-16T12:37:11;102203.59;;;27.54
67509;BMP280;54354;44.724;11.284;2022-10-16T12:39:38;102206.84;;;27.53
67509;BMP280;54354;44.724;11.284;2022-10-16T12:42:19;102200.38;;;27.50
67509;BMP280;54354;44.724;11.284;2022-10-16T12:44:45;102197.16;;;27.57
67509;BMP280;54354;44.724;11.284;2022-10-16T12:47:20;102202.84;;;27.54
67509;BMP280;54354;44.724;11.284;2022-10-16T12:49:54;102198.91;;;27.55
67509;BMP280;54354;44.724;11.284;2022-10-16T12:52:36;102205.59;;;27.59
67509;BMP280;54354;44.724;11.284;2022-10-16T12:55:03;102197.44;;;27.59
67509;BMP280;54354;44.724;11.284;2022-10-16T12:57:35;102197.91;;;27.58
67509;BMP280;54354;44.724;11.284;2022-10-16T13:02:46;102203.13;;;27.61
67509;BMP280;54354;44.724;11.284;2022-10-16T13:16:44;102205.34;;;27.68
67509;BMP280;54354;44.724;11.284;2022-10-16T13:19:38;102208.53;;;27.73
67509;BMP280;54354;44.724;11.284;2022-10-16T13:25:22;102207.06;;;27.77
67509;BMP280;54354;44.724;11.284;2022-10-16T13:27:55;102206.81;;;27.75
67509;BMP280;54354;44.724;11.284;2022-10-16T13:30:24;102208.06;;;27.74
67509;BMP280;54354;44.724;11.284;2022-10-16T13:35:49;102214.25;;;27.75
67509;BMP280;54354;44.724;11.284;2022-10-16T13:38:27;102215.25;;;27.72
67509;BMP280;54354;44.724;11.284;2022-10-16T13:40:58;102208.81;;;27.75
67509;BMP280;54354;44.724;11.284;2022-10-16T13:46:10;102219.44;;;27.84
67509;BMP280;54354;44.724;11.284;2022-10-16T13:48:36;102214.22;;;27.91
67509;BMP280;54354;44.724;11.284;2022-10-16T13:53:31;102222.13;;;28.00
67509;BMP280;54354;44.724;11.284;2022-10-16T13:55:57;102229.78;;;28.08
67509;BMP280;54354;44.724;11.284;2022-10-16T13:58:22;102235.75;;;28.12
67509;BMP280;54354;44.724;11.284;2022-10-16T14:01:00;102218.88;;;28.13
67509;BMP280;54354;44.724;11.284;2022-10-16T14:03:27;102214.19;;;28.14
67509;BMP280;54354;44.724;11.284;2022-10-16T14:05:55;102217.66;;;28.14
67509;BMP280;54354;44.724;11.284;2022-10-16T14:08:23;102228.03;;;28.16
67509;BMP280;54354;44.724;11.284;2022-10-16T14:10:53;102222.34;;;28.14
67509;BMP280;54354;44.724;11.284;2022-10-16T14:13:33;102229.53;;;28.17
67509;BMP280;54354;44.724;11.284;2022-10-16T14:16:02;102223.06;;;28.20
67509;BMP280;54354;44.724;11.284;2022-10-16T14:18:29;102231.53;;;28.22
67509;BMP280;54354;44.724;11.284;2022-10-16T14:21:02;102225.31;;;28.16
67509;BMP280;54354;44.724;11.284;2022-10-16T14:23:31;102221.34;;;28.17
67509;BMP280;54354;44.724;11.284;2022-10-16T14:28:37;102223.59;;;28.18
67509;BMP280;54354;44.724;11.284;2022-10-16T14:31:23;102227.78;;;28.19
67509;BMP280;54354;44.724;11.284;2022-10-16T14:33:49;102233.22;;;28.19
67509;BMP280;54354;44.724;11.284;2022-10-16T14:36:16;102228.78;;;28.16
67509;BMP280;54354;44.724;11.284;2022-10-16T14:38:57;102220.16;;;28.12
67509;BMP280;54354;44.724;11.284;2022-10-16T14:41:24;102236.97;;;28.16
67509;BMP280;54354;44.724;11.284;2022-10-16T14:43:53;102230.78;;;28.10
67509;BMP280;54354;44.724;11.284;2022-10-16T14:46:21;102237.72;;;28.11
67509;BMP280;54354;44.724;11.284;2022-10-16T14:49:02;102236.72;;;28.09
67509;BMP280;54354;44.724;11.284;2022-10-16T14:51:29;102235.50;;;28.10
67509;BMP280;54354;44.724;11.284;2022-10-16T14:53:55;102244.16;;;28.08
67509;BMP280;54354;44.724;11.284;2022-10-16T14:56:26;102234.03;;;28.03
67509;BMP280;54354;44.724;11.284;2022-10-16T14:58:55;102227.31;;;28.04
67509;BMP280;54354;44.724;11.284;2022-10-16T15:01:21;102236.25;;;28.05
67509;BMP280;54354;44.724;11.284;2022-10-16T15:30:06;102238.25;;;27.76
67509;BMP280;54354;44.724;11.284;2022-10-16T15:32:31;102240.97;;;27.71
67509;BMP280;54354;44.724;11.284;2022-10-16T15:34:57;102240.75;;;27.68
67509;BMP280;54354;44.724;11.284;2022-10-16T15:37:22;102243.47;;;27.68
67509;BMP280;54354;44.724;11.284;2022-10-16T15:39:50;102241.22;;;27.61
67509;BMP280;54354;44.724;11.284;2022-10-16T15:42:15;102249.41;;;27.61
67509;BMP280;54354;44.724;11.284;2022-10-16T15:44:41;102249.16;;;27.59
67509;BMP280;54354;44.724;11.284;2022-10-16T15:47:07;102244.44;;;27.54
67509;BMP280;54354;44.724;11.284;2022-10-16T15:49:33;102254.09;;;27.55
67509;BMP280;54354;44.724;11.284;2022-10-16T15:51:58;102252.59;;;27.54
67509;BMP280;54354;44.724;11.284;2022-10-16T15:54:24;102248.41;;;27.53
67509;BMP280;54354;44.724;11.284;2022-10-16T15:56:49;102251.59;;;27.52
67509;BMP280;54354;44.724;11.284;2022-10-16T15:59:15;102254.09;;;27.50
67509;BMP280;54354;44.724;11.284;2022-10-16T16:01:41;102252.59;;;27.49
67509;BMP280;54354;44.724;11.284;2022-10-16T16:04:06;102254.56;;;27.48
67509;BMP280;54354;44.724;11.284;2022-10-16T16:06:32;102259.75;;;27.46
67509;BMP280;54354;44.724;11.284;2022-10-16T16:08:58;102264.94;;;27.44
67509;BMP280;54354;44.724;11.284;2022-10-16T16:11:24;102261.97;;;27.42
67509;BMP280;54354;44.724;11.284;2022-10-16T16:13:50;102267.94;;;27.41
67509;BMP280;54354;44.724;11.284;2022-10-16T16:16:16;102265.44;;;27.37
67509;BMP280;54354;44.724;11.284;2022-10-16T16:18:42;102264.44;;;27.34
67509;BMP280;54354;44.724;11.284;2022-10-16T16:21:09;102265.91;;;27.30
67509;BMP280;54354;44.724;11.284;2022-10-16T16:23:35;102271.59;;;27.32
67509;BMP280;54354;44.724;11.284;2022-10-16T16:26:29;102273.09;;;27.27
67509;BMP280;54354;44.724;11.284;2022-10-16T16:28:59;102269.88;;;27.29
67509;BMP280;54354;44.724;11.284;2022-10-16T16:31:26;102264.41;;;27.23
67509;BMP280;54354;44.724;11.284;2022-10-16T16:33:51;102279.75;;;27.21
67509;BMP280;54354;44.724;11.284;2022-10-16T16:36:17;102276.75;;;27.19
67509;BMP280;54354;44.724;11.284;2022-10-16T16:38:44;102280.22;;;27.14
67509;BMP280;54354;44.724;11.284;2022-10-16T16:41:21;102275.50;;;27.09
67509;BMP280;54354;44.724;11.284;2022-10-16T16:43:46;102279.44;;;27.08
67509;BMP280;54354;44.724;11.284;2022-10-16T16:46:19;102273.50;;;27.03